Time;durP1;ratioP1;P1;durP2;ratioP2;P2;SDS_P1;SDS_P2;PMS_P1;PMS_P2;Temp;Humidity;BMP_temperature;BMP_pressure;BME280_temperature;BME280_humidity;BME280_pressure;Samples;Min_cycle;Max_cycle;Signal;HPM_P1;HPM_P2
2022/01/21 00:01:29;;;;;;;22.60;4.22;;;;;;;-146.64;100.00;55568.03;5073796;28;20391;-75
2022/01/21 00:03:54;;;;;;;17.40;4.60;;;;;;;-146.64;100.00;53990.06;5066748;28;20024;-74
2022/01/21 00:06:20;;;;;;;22.38;3.33;;;;;;;-146.64;100.00;55568.03;5058651;28;20031;-75
2022/01/21 00:08:48;;;;;;;16.65;3.55;;;;;;;-146.64;100.00;55831.06;5041264;28;20044;-75
2022/01/21 00:11:14;;;;;;;27.35;3.47;;;;;;;-146.64;100.00;54778.97;5041701;28;20024;-74
2022/01/21 00:13:40;;;;;;;21.95;2.92;;;;;;;-146.64;100.00;54778.97;5058986;28;20375;-75
2022/01/21 00:16:14;;;;;;;22.55;3.28;;;;;;;-146.64;100.00;54515.97;5073405;28;20456;-75
2022/01/21 00:18:45;;;;;;;27.75;3.78;;;;;;;-146.64;100.00;56357.25;5057540;28;20033;-75
2022/01/21 00:32:13;;;;;;;15.20;2.42;;;;;;;-146.64;100.00;44367.47;5030886;28;20102;-75
2022/01/21 00:34:39;;;;;;;18.02;2.20;;;;;;;-146.64;100.00;41958.31;5069204;28;20086;-75
2022/01/21 00:37:04;;;;;;;18.60;2.90;;;;;;;-146.64;100.00;41661.38;5070980;28;20098;-75
2022/01/21 00:39:32;;;;;;;12.55;2.38;;;;;;;-146.64;100.00;41260.03;5057931;28;20028;-74
2022/01/21 00:42:07;;;;;;;11.48;2.10;;;;;;;-146.64;100.00;41180.16;5034399;28;20487;-74
2022/01/21 00:44:33;;;;;;;16.85;2.10;;;;;;;-146.64;100.00;41354.22;5059490;28;20033;-75
2022/01/21 00:46:58;;;;;;;14.68;2.22;;;;;;;-146.64;100.00;41417.69;5057558;28;20387;-74
2022/01/21 00:49:23;;;;;;;13.20;1.85;;;;;;;-146.64;100.00;41683.91;5058394;28;20016;-75
2022/01/21 00:51:49;;;;;;;24.65;2.85;;;;;;;-146.64;100.00;41745.34;5039227;28;20391;-75
2022/01/21 00:54:14;;;;;;;12.90;2.53;;;;;;;-146.64;100.00;41876.41;5052956;28;20061;-75
2022/01/21 00:56:41;;;;;;;20.40;2.78;;;;;;;-146.64;100.00;42113.97;5051168;28;20056;-75
2022/01/21 00:59:06;;;;;;;10.13;1.95;;;;;;;-146.64;100.00;42681.31;5057238;28;20162;-75
2022/01/21 01:01:32;;;;;;;12.07;1.92;;;;;;;-146.64;100.00;42765.31;5037987;28;20024;-75
2022/01/21 01:03:57;;;;;;;11.20;2.00;;;;;;;-146.64;100.00;43871.59;5054749;28;20020;-75
2022/01/21 01:06:23;;;;;;;13.25;1.95;;;;;;;-146.64;100.00;44385.91;5057686;28;20024;-75
2022/01/21 01:08:50;;;;;;;15.30;1.77;;;;;;;-146.64;100.00;46292.16;5050469;28;20473;-75
2022/01/21 01:11:21;;;;;;;8.88;1.48;;;;;;;-146.64;100.00;47108.25;5048098;28;20073;-75
2022/01/21 01:22:03;;;;;;;13.43;2.10;;;;;;;-146.64;100.00;52412.72;5051258;28;20040;-75
2022/01/21 01:29:59;;;;;;;10.45;3.08;;;;;;;-146.64;100.00;60569.03;5056053;28;20026;-75
2022/01/21 01:32:26;;;;;;;17.10;3.85;;;;;;;-146.64;100.00;58989.09;5073092;28;20020;-76
2022/01/21 01:34:52;;;;;;;15.50;3.30;;;;;;;-146.64;100.00;57936.13;5060950;28;20367;-75
2022/01/21 01:37:43;;;;;;;15.90;2.72;;;;;;;-146.64;100.00;57146.59;5056090;28;20017;-75
2022/01/21 01:50:54;;;;;;;20.65;3.45;;;;;;;-146.64;100.00;59252.38;5059996;28;20492;-75
2022/01/21 01:53:25;;;;;;;15.63;2.33;;;;;;;-146.64;100.00;61359.25;5047943;28;20394;-75
2022/01/21 01:55:51;;;;;;;20.38;3.08;;;;;;;-146.64;100.00;62413.09;5045486;28;20063;-75
2022/01/21 01:58:16;;;;;;;21.80;3.50;;;;;;;-146.64;100.00;62149.59;5073560;28;20028;-75
2022/01/21 02:00:42;;;;;;;18.58;3.22;;;;;;;-146.64;100.00;63994.41;5036289;28;20044;-75
2022/01/21 02:03:13;;;;;;;15.43;3.85;;;;;;;-146.64;100.00;63203.69;5074081;28;20024;-75
2022/01/21 02:05:41;;;;;;;17.40;3.17;;;;;;;-146.64;100.00;63730.81;5060010;28;20144;-76
2022/01/21 02:08:06;;;;;;;14.27;2.33;;;;;;;-146.64;100.00;63203.69;5073220;28;20043;-75
2022/01/21 02:10:32;;;;;;;15.15;3.40;;;;;;;-146.64;100.00;62413.09;5039606;28;20024;-75
2022/01/21 02:13:04;;;;;;;16.02;2.70;;;;;;;-146.64;100.00;63730.81;5049447;28;20033;-76
2022/01/21 02:15:30;;;;;;;18.13;2.63;;;;;;;-146.64;100.00;64521.66;5052976;28;20036;-75
2022/01/21 02:23:27;;;;;;;18.90;2.25;;;;;;;-146.64;100.00;66367.56;5048096;28;20208;-76
2022/01/21 02:25:52;;;;;;;14.23;2.20;;;;;;;-146.64;100.00;68478.19;5057015;28;20052;-77
2022/01/21 02:28:19;;;;;;;7.80;2.60;;;;;;;-146.64;100.00;67686.56;5033044;28;20028;-75
2022/01/21 02:30:55;;;;;;;15.85;3.55;;;;;;;-146.64;100.00;67686.56;5056666;28;20365;-76
2022/01/21 02:33:20;;;;;;;18.08;3.63;;;;;;;-146.64;100.00;68214.31;5053816;28;20025;-75
2022/01/21 02:35:46;;;;;;;14.48;2.25;;;;;;;-146.64;100.00;67950.44;5034332;28;20369;-75
2022/01/21 02:38:11;;;;;;;10.65;2.40;;;;;;;-146.64;100.00;68214.31;5075142;28;20021;-75
2022/01/21 02:40:38;;;;;;;17.45;2.55;;;;;;;-146.64;100.00;68478.19;5053654;28;20036;-75
2022/01/21 02:43:03;;;;;;;8.05;2.05;;;;;;;-146.64;100.00;68214.31;5036911;28;20025;-76
2022/01/21 02:45:28;;;;;;;22.30;2.75;;;;;;;-146.64;100.00;68742.09;5038727;28;20091;-76
2022/01/21 02:47:54;;;;;;;13.95;2.20;;;;;;;-146.64;100.00;68742.09;5035412;28;20025;-75
2022/01/21 02:50:19;;;;;;;9.25;2.50;;;;;;;-146.64;100.00;68478.19;5056873;28;20424;-76
2022/01/21 02:52:57;;;;;;;10.80;2.55;;;;;;;-146.64;100.00;70589.97;5055407;28;20597;-76
2022/01/21 02:55:24;;;;;;;26.17;2.55;;;;;;;-146.64;100.00;70061.91;5049096;28;20037;-76
2022/01/21 02:57:49;;;;;;;15.70;2.38;;;;;;;-146.64;100.00;69269.97;5071054;28;20028;-75
2022/01/21 03:00:15;;;;;;;13.68;2.50;;;;;;;-146.64;100.00;69006.03;5056677;28;20190;-75
2022/01/21 03:02:40;;;;;;;13.90;2.08;;;;;;;-146.64;100.00;69533.94;5049857;28;20508;-75
2022/01/21 03:05:12;;;;;;;18.05;2.65;;;;;;;-146.64;100.00;70325.94;5036473;28;20498;-75
2022/01/21 03:07:37;;;;;;;14.60;2.38;;;;;;;-146.64;100.00;71118.06;5035708;28;20032;-75
2022/01/21 03:10:05;;;;;;;8.07;1.90;;;;;;;-146.64;100.00;70854.00;5052716;28;20032;-76
2022/01/21 03:12:31;;;;;;;10.23;1.80;;;;;;;-146.64;100.00;70061.91;5034010;28;20469;-75
2022/01/21 03:14:56;;;;;;;9.75;1.95;;;;;;;-146.64;100.00;71118.06;5062274;28;20066;-76
2022/01/21 03:17:21;;;;;;;10.07;2.13;;;;;;;-146.64;100.00;72967.03;5049925;28;20440;-76
2022/01/21 03:19:47;;;;;;;14.75;1.90;;;;;;;-146.64;100.00;73759.69;5072860;28;20075;-75
2022/01/21 03:22:13;;;;;;;16.23;2.38;;;;;;;-146.64;100.00;73495.47;5058462;28;20033;-75
2022/01/21 03:24:38;;;;;;;11.60;2.13;;;;;;;-146.64;100.00;73231.22;5065286;28;20024;-76
2022/01/21 03:27:04;;;;;;;22.73;2.10;;;;;;;-146.64;100.00;74552.53;5046602;28;20481;-75
2022/01/21 03:29:29;;;;;;;6.43;1.63;;;;;;;-146.64;100.00;74552.53;5042927;28;20017;-75
2022/01/21 03:31:54;;;;;;;13.32;2.10;;;;;;;-146.64;100.00;74288.22;5059450;28;20522;-75
2022/01/21 03:34:20;;;;;;;8.02;1.95;;;;;;;-146.64;100.00;76138.66;5057292;28;20059;-76
2022/01/21 03:36:45;;;;;;;26.75;2.58;;;;;;;-146.64;100.00;76403.06;5059851;28;20098;-75
2022/01/21 03:39:10;;;;;;;14.50;2.05;;;;;;;-146.64;100.00;76403.06;5040051;28;20029;-75
2022/01/21 03:41:36;;;;;;;26.40;2.22;;;;;;;-146.64;100.00;76667.50;5058249;28;20123;-75
2022/01/21 03:44:01;;;;;;;14.50;1.92;;;;;;;-146.64;100.00;77460.91;5061180;28;20028;-76
2022/01/21 03:46:26;;;;;;;14.73;3.00;;;;;;;-146.64;100.00;77725.41;5060650;28;20029;-75
2022/01/21 03:48:52;;;;;;;10.05;1.98;;;;;;;-146.64;100.00;77989.94;5060116;28;20024;-75
2022/01/21 03:51:19;;;;;;;14.05;2.83;;;;;;;-146.64;100.00;78519.03;5057658;28;20476;-76
2022/01/21 03:53:46;;;;;;;8.80;2.60;;;;;;;-146.64;100.00;79312.78;5057712;28;20049;-76
2022/01/21 03:56:13;;;;;;;17.55;2.80;;;;;;;-146.64;100.00;80106.72;5078298;28;20146;-76
2022/01/21 03:58:38;;;;;;;;;;;;;;;-146.64;100.00;79842.06;5066469;28;20064;-76
2022/01/21 04:01:04;;;;;;;8.95;1.77;;;;;;;-146.64;100.00;80371.41;5054030;28;19942;-75
2022/01/21 04:03:29;;;;;;;8.70;1.60;;;;;;;-146.64;100.00;80106.72;5057791;28;20028;-75
2022/01/21 04:05:55;;;;;;;12.68;2.67;;;;;;;-146.64;100.00;80106.72;5058179;28;20024;-76
2022/01/21 04:08:20;;;;;;;7.70;2.05;;;;;;;-146.64;100.00;79577.41;5059832;28;20093;-75
2022/01/21 04:10:48;;;;;;;14.38;2.08;;;;;;;-146.64;100.00;80371.41;5048365;28;20056;-75
2022/01/21 04:13:16;;;;;;;10.30;2.30;;;;;;;-146.64;100.00;80900.81;5061252;28;20036;-75
2022/01/21 04:15:45;;;;;;;17.58;2.25;;;;;;;-146.64;100.00;80636.09;5041432;28;20036;-75
2022/01/21 04:18:13;;;;;;;10.20;1.98;;;;;;;-146.64;100.00;80106.72;5056383;28;20025;-75
2022/01/21 04:20:39;;;;;;;7.88;2.28;;;;;;;-146.64;100.00;79842.06;5036463;28;20024;-75
2022/01/21 04:23:05;;;;;;;7.70;1.67;;;;;;;-146.64;100.00;80636.09;5057268;28;20043;-75
2022/01/21 04:25:30;;;;;;;12.93;2.00;;;;;;;-146.64;100.00;80900.81;5039775;28;20055;-75
2022/01/21 04:27:55;;;;;;;9.52;2.90;;;;;;;-146.64;100.00;81165.53;5060634;28;20443;-76
2022/01/21 04:30:21;;;;;;;13.65;3.22;;;;;;;-146.64;100.00;81165.53;5058317;28;20036;-75
2022/01/21 04:32:46;;;;;;;5.75;1.50;;;;;;;-146.64;100.00;81165.53;5040636;28;20029;-75
2022/01/21 04:35:11;;;;;;;8.02;1.75;;;;;;;-146.64;100.00;81430.28;5052981;28;20039;-75
2022/01/21 04:37:43;;;;;;;7.40;1.70;;;;;;;-146.64;100.00;81959.81;5064636;28;20438;-75
2022/01/21 04:40:13;;;;;;;6.22;1.90;;;;;;;-146.64;100.00;81695.03;5077247;28;20039;-75
2022/01/21 04:48:07;;;;;;;15.63;2.70;;;;;;;-146.64;100.00;82754.28;5060897;28;20125;-75
2022/01/21 04:50:40;;;;;;;11.00;2.08;;;;;;;-146.64;100.00;82489.44;5031105;28;20050;-76
2022/01/21 04:53:06;;;;;;;9.68;2.05;;;;;;;-146.64;100.00;82489.44;5042890;28;20095;-75
2022/01/21 04:55:35;;;;;;;5.28;2.83;;;;;;;-146.64;100.00;82754.28;5041960;28;20056;-75
2022/01/21 04:58:00;;;;;;;7.13;2.20;;;;;;;-146.64;100.00;82754.28;5049572;28;20467;-75
2022/01/21 05:00:26;;;;;;;6.32;1.90;;;;;;;-146.64;100.00;83019.13;5044250;28;20020;-75
2022/01/21 05:02:51;;;;;;;12.52;1.92;;;;;;;-146.64;100.00;83019.13;5059204;28;20382;-76
2022/01/21 05:05:17;;;;;;;7.85;2.22;;;;;;;-146.64;100.00;83548.88;5054247;28;20054;-75
2022/01/21 05:07:42;;;;;;;8.98;2.50;;;;;;;-146.64;100.00;83284.00;5047406;28;20020;-76
2022/01/21 05:10:08;;;;;;;6.30;1.65;;;;;;;-146.64;100.00;83813.78;5076722;28;20020;-76
2022/01/21 05:12:34;;;;;;;5.70;1.67;;;;;;;-146.64;100.00;84078.72;5036336;28;20040;-75
2022/01/21 05:17:25;;;;;;;12.98;2.22;;;;;;;-146.64;100.00;84078.72;5053322;28;20479;-76
2022/01/21 05:19:52;;;;;;;8.25;2.10;;;;;;;-146.64;100.00;84343.66;5054641;28;20109;-76
2022/01/21 05:22:17;;;;;;;9.43;2.05;;;;;;;-146.64;100.00;84608.59;5049069;28;20372;-75
2022/01/21 05:24:42;;;;;;;6.75;1.75;;;;;;;-146.64;100.00;84343.66;5075286;28;20036;-75
2022/01/21 05:27:10;;;;;;;14.63;1.80;;;;;;;-146.64;100.00;84343.66;5040464;28;20067;-75
2022/01/21 05:29:39;;;;;;;19.65;2.35;;;;;;;-146.64;100.00;84873.56;5059284;28;20472;-75
2022/01/21 05:32:06;;;;;;;9.75;1.85;;;;;;;-146.64;100.00;84873.56;5062032;28;20397;-75
2022/01/21 05:34:31;;;;;;;;;;;;;;;-146.64;100.00;85933.66;5029139;28;20025;-75
2022/01/21 05:36:57;;;;;;;11.23;2.22;;;;;;;-146.64;100.00;86198.72;5048869;28;20358;-75
2022/01/21 05:39:22;;;;;;;12.60;1.75;;;;;;;-146.64;100.00;86728.88;5041997;28;20059;-75
2022/01/21 05:41:51;;;;;;;13.27;2.42;;;;;;;-146.64;100.00;86463.78;5050231;28;20567;-76
2022/01/21 05:46:23;;;;;;;15.02;2.08;;;;;;;-146.64;100.00;86994.00;5056185;28;20024;-75
2022/01/21 05:47:08;;;;;;;9.13;1.85;;;;;;;-146.64;100.00;86463.78;5061721;28;20039;-75
2022/01/21 05:49:35;;;;;;;12.82;1.92;;;;;;;-146.64;100.00;86728.88;5067813;28;20440;-75
2022/01/21 05:52:04;;;;;;;7.53;1.80;;;;;;;-146.64;100.00;86994.00;5072571;28;20472;-76
2022/01/21 05:54:30;;;;;;;12.85;2.35;;;;;;;-146.64;100.00;85933.66;5043959;28;20474;-75
2022/01/21 05:56:56;;;;;;;14.77;2.65;;;;;;;-146.64;100.00;85668.59;5066703;28;20086;-76
2022/01/21 05:59:21;;;;;;;13.50;2.25;;;;;;;-146.64;100.00;86728.88;5036863;28;20090;-75
2022/01/21 06:01:47;;;;;;;9.55;1.90;;;;;;;-146.64;100.00;85933.66;5053694;28;20036;-75
2022/01/21 06:04:12;;;;;;;12.80;1.88;;;;;;;-146.64;100.00;85403.56;5049608;28;20033;-76
2022/01/21 06:06:37;;;;;;;12.32;2.55;;;;;;;-146.64;100.00;84873.56;5042039;28;20481;-75
2022/01/21 06:09:04;;;;;;;9.00;1.67;;;;;;;-146.64;100.00;85138.56;5062093;28;20033;-75
2022/01/21 06:11:29;;;;;;;9.27;1.60;;;;;;;-146.64;100.00;85403.56;5039669;28;20025;-75
2022/01/21 06:13:54;;;;;;;9.13;1.58;;;;;;;-146.64;100.00;85403.56;5042251;28;20218;-76
2022/01/21 06:16:20;;;;;;;9.73;2.00;;;;;;;-146.64;100.00;85933.66;5032299;28;20115;-75
2022/01/21 06:18:46;;;;;;;10.80;2.00;;;;;;;-146.64;100.00;85933.66;5056563;28;20063;-75
2022/01/21 06:21:12;;;;;;;19.77;2.13;;;;;;;-146.64;100.00;85403.56;5035109;28;20036;-75
2022/01/21 06:23:38;;;;;;;13.60;2.00;;;;;;;-146.64;100.00;84608.59;5049139;28;20029;-75
2022/01/21 06:26:03;;;;;;;13.70;2.22;;;;;;;-146.64;100.00;84608.59;5030648;28;20112;-76
2022/01/21 06:28:29;;;;;;;14.77;3.13;;;;;;;-146.64;100.00;85138.56;5049286;28;20041;-75
2022/01/21 06:30:54;;;;;;;17.25;2.40;;;;;;;-146.64;100.00;84078.72;5048969;28;20047;-76
2022/01/21 06:33:23;;;;;;;12.80;1.92;;;;;;;-146.64;100.00;83548.88;5046526;28;20061;-75
2022/01/21 06:35:49;;;;;;;14.48;2.35;;;;;;;-146.64;100.00;83548.88;5028995;28;20041;-75
2022/01/21 06:38:15;;;;;;;12.55;2.53;;;;;;;-146.64;100.00;82489.44;5051182;28;20260;-75
2022/01/21 06:40:40;;;;;;;9.77;1.90;;;;;;;-146.64;100.00;82224.63;5049818;28;20104;-76
2022/01/21 06:43:06;;;;;;;14.23;2.03;;;;;;;-146.64;100.00;80371.41;5047487;28;20025;-75
2022/01/21 06:45:31;;;;;;;17.52;2.20;;;;;;;-146.64;100.00;80106.72;5048372;28;20056;-75
2022/01/21 06:48:02;;;;;;;21.45;2.58;;;;;;;-146.64;100.00;80106.72;5046343;28;20358;-76
2022/01/21 06:50:28;;;;;;;10.35;2.30;;;;;;;-146.64;100.00;81165.53;5040188;28;20025;-76
2022/01/21 06:52:53;;;;;;;9.85;2.60;;;;;;;-146.64;100.00;83019.13;5048487;28;20028;-75
2022/01/21 06:55:19;;;;;;;16.25;2.97;;;;;;;-146.64;100.00;83019.13;5042555;28;20068;-76
2022/01/21 06:57:44;;;;;;;16.17;2.70;;;;;;;-146.64;100.00;84078.72;5021470;28;20033;-76
2022/01/21 07:00:13;;;;;;;14.70;2.53;;;;;;;-146.64;100.00;84608.59;5047911;28;20032;-75
2022/01/21 07:02:38;;;;;;;10.18;2.15;;;;;;;-146.64;100.00;84078.72;5043876;28;20385;-75
2022/01/21 07:05:04;;;;;;;12.57;2.28;;;;;;;-146.64;100.00;83019.13;5048411;28;20055;-76
2022/01/21 07:07:30;;;;;;;19.85;2.72;;;;;;;-146.64;100.00;83548.88;5058665;28;20022;-75
2022/01/21 07:09:56;;;;;;;12.77;2.25;;;;;;;-146.64;100.00;83548.88;5043419;28;20084;-75
2022/01/21 07:12:22;;;;;;;9.75;1.98;;;;;;;-146.64;100.00;84608.59;5039775;28;20060;-75
2022/01/21 07:14:47;;;;;;;11.65;2.38;;;;;;;-146.64;100.00;84608.59;5064320;28;20037;-75
2022/01/21 07:17:12;;;;;;;10.55;1.70;;;;;;;-146.64;100.00;84873.56;5043721;28;20033;-75
2022/01/21 07:19:37;;;;;;;9.25;1.98;;;;;;;-146.64;100.00;84873.56;5040464;28;20539;-75
2022/01/21 07:22:03;;;;;;;7.20;1.95;;;;;;;-146.64;100.00;84873.56;5030990;28;20079;-75
2022/01/21 07:24:28;;;;;;;19.17;2.00;;;;;;;-146.64;100.00;85668.59;5065933;28;20028;-75
2022/01/21 07:26:54;;;;;;;12.77;2.92;;;;;;;-146.64;100.00;86198.72;5047530;28;20025;-75
2022/01/21 07:29:19;;;;;;;8.40;1.85;;;;;;;-146.64;100.00;86198.72;5048846;28;20123;-75
2022/01/21 07:31:44;;;;;;;11.00;1.90;;;;;;;-146.64;100.00;86198.72;5047856;28;20040;-75
2022/01/21 07:34:10;;;;;;;8.10;1.85;;;;;;;-146.64;100.00;86463.78;5040214;28;20028;-76
2022/01/21 07:36:35;;;;;;;14.35;2.08;;;;;;;-146.64;100.00;86198.72;5048870;28;20365;-76
2022/01/21 07:39:02;;;;;;;9.43;2.10;;;;;;;-146.64;100.00;86198.72;5039337;28;20025;-76
2022/01/21 07:41:27;;;;;;;10.65;2.40;;;;;;;-146.64;100.00;86463.78;5041259;28;20020;-76
2022/01/21 07:43:53;;;;;;;13.65;2.95;;;;;;;-146.64;100.00;86463.78;5046238;28;20106;-76
2022/01/21 07:46:19;;;;;;;15.23;3.28;;;;;;;-146.64;100.00;86728.88;5047145;28;20539;-75
2022/01/21 07:48:44;;;;;;;15.88;2.70;;;;;;;-146.64;100.00;86463.78;5047402;28;20075;-75
2022/01/21 07:51:12;;;;;;;15.20;2.95;;;;;;;-146.64;100.00;86198.72;5048034;28;20124;-76
2022/01/21 07:53:38;;;;;;;8.88;2.28;;;;;;;-146.64;100.00;86198.72;5045527;28;20104;-75
2022/01/21 07:56:03;;;;;;;19.58;3.95;;;;;;;-146.64;100.00;86463.78;5042133;28;20168;-75
2022/01/21 07:58:29;;;;;;;19.83;4.75;;;;;;;-146.64;100.00;86198.72;5064282;28;20024;-75
2022/01/21 08:00:54;;;;;;;15.93;3.60;;;;;;;-146.64;100.00;86463.78;5042088;28;20024;-75
2022/01/21 08:03:20;;;;;;;19.50;3.58;;;;;;;-146.64;100.00;86994.00;5048147;28;20035;-75
2022/01/21 08:05:46;;;;;;;20.77;3.10;;;;;;;-146.64;100.00;87524.28;5067769;28;20036;-75
2022/01/21 08:08:12;;;;;;;16.70;2.95;;;;;;;-146.64;100.00;87259.13;5053823;28;20022;-75
2022/01/21 08:10:37;;;;;;;15.60;3.38;;;;;;;-146.64;100.00;87259.13;5025882;28;20028;-75
2022/01/21 08:13:02;;;;;;;10.45;3.17;;;;;;;-146.64;100.00;87259.13;5054059;28;20032;-75
2022/01/21 08:15:28;;;;;;;9.55;3.00;;;;;;;-146.64;100.00;87524.28;5070729;28;20090;-75
2022/01/21 08:17:53;;;;;;;24.80;3.70;;;;;;;-146.64;100.00;87789.44;5037765;28;20029;-75
2022/01/21 08:20:19;;;;;;;22.38;2.83;;;;;;;-146.64;100.00;87789.44;5049244;28;20091;-75
2022/01/21 08:22:44;;;;;;;21.25;3.35;;;;;;;-146.64;100.00;86994.00;5051839;28;20154;-75
2022/01/21 08:25:10;;;;;;;13.07;3.17;;;;;;;-146.64;100.00;86994.00;5072719;28;20024;-75
2022/01/21 08:27:35;;;;;;;17.08;3.67;;;;;;;-146.64;100.00;86728.88;5036222;28;20029;-75
2022/01/21 08:30:01;;;;;;;19.15;3.70;;;;;;;-146.64;100.00;86728.88;5034357;28;20085;-75
2022/01/21 08:32:28;;;;;;;15.52;4.10;;;;;;;-146.64;100.00;86463.78;5067246;28;20107;-75
2022/01/21 08:34:54;;;;;;;14.68;5.03;;;;;;;-146.64;100.00;86463.78;5045047;28;20507;-75
2022/01/21 08:37:19;;;;;;;25.67;4.57;;;;;;;-146.64;100.00;86463.78;5050317;28;20136;-75
2022/01/21 08:39:44;;;;;;;13.88;5.18;;;;;;;-146.64;100.00;85933.66;5050364;28;20052;-75
2022/01/21 08:42:10;;;;;;;24.40;5.90;;;;;;;-146.64;100.00;85403.56;5019067;28;20128;-75
2022/01/21 08:44:36;;;;;;;21.90;5.90;;;;;;;-146.64;100.00;85668.59;5031400;28;20033;-75
2022/01/21 08:47:01;;;;;;;28.50;5.90;;;;;;;-146.64;100.00;86198.72;5043371;28;20036;-75
2022/01/21 08:49:27;;;;;;;25.60;6.95;;;;;;;-146.64;100.00;86463.78;5069776;28;20064;-75
2022/01/21 08:51:55;;;;;;;27.70;7.45;;;;;;;-146.64;100.00;86728.88;5038696;28;20040;-75
2022/01/21 08:54:21;;;;;;;19.65;6.85;;;;;;;-146.64;100.00;86994.00;5053725;28;20080;-76
2022/01/21 08:56:48;;;;;;;23.35;6.38;;;;;;;-146.64;100.00;86728.88;5036169;28;20067;-76
2022/01/21 08:59:16;;;;;;;24.75;7.43;;;;;;;-146.64;100.00;86728.88;5036632;28;20036;-76
2022/01/21 09:01:41;;;;;;;26.17;7.05;;;;;;;-146.64;100.00;86728.88;5052893;28;20040;-76
2022/01/21 09:04:07;;;;;;;20.67;7.78;;;;;;;-146.64;100.00;86198.72;5070306;28;20428;-76
2022/01/21 09:06:32;;;;;;;31.90;8.93;;;;;;;-146.64;100.00;85668.59;5052154;28;20027;-76
2022/01/21 09:08:58;;;;;;;23.45;7.75;;;;;;;-146.64;100.00;85138.56;5035500;28;20059;-76
2022/01/21 09:11:23;;;;;;;20.48;7.93;;;;;;;-146.64;100.00;84343.66;5053361;28;20489;-76
2022/01/21 09:13:50;;;;;;;29.98;7.22;;;;;;;-146.64;100.00;83284.00;5032949;28;20094;-75
2022/01/21 09:16:16;;;;;;;31.40;6.82;;;;;;;-146.64;100.00;80371.41;5060123;28;20028;-76
2022/01/21 09:18:51;;;;;;;33.35;6.57;;;;;;;-146.64;100.00;76667.50;5048304;28;20041;-76
2022/01/21 09:21:27;;;;;;;30.08;6.28;;;;;;;-146.64;100.00;71118.06;5034456;28;20507;-76
2022/01/21 09:23:54;;;;;;;31.23;7.13;;;;;;;-146.64;100.00;67686.56;5052649;28;20540;-76
2022/01/21 09:26:21;;;;;;;;;;;;;;;-146.64;100.00;62413.09;5036584;28;20027;-76
2022/01/21 09:28:46;;;;;;;27.23;5.15;;;;;;;-146.64;100.00;57936.13;5033886;28;19919;-76
2022/01/21 09:31:12;;;;;;;19.42;4.75;;;;;;;-146.64;100.00;50758.03;5043665;28;20476;-76
2022/01/21 09:33:39;;;;;;;21.02;5.80;;;;;;;-146.64;100.00;47278.44;5055533;28;20029;-76
2022/01/21 09:36:04;;;;;;;29.83;4.63;;;;;;;-146.64;100.00;46136.34;5068551;28;20047;-76
2022/01/21 09:38:30;;;;;;;22.10;4.25;;;;;;;-146.64;100.00;43420.84;5053101;28;20032;-76
2022/01/21 09:40:56;;;;;;;16.92;3.97;;;;;;;-146.64;100.00;42646.50;5068442;28;20115;-76
2022/01/21 09:43:22;;;;;;;22.95;4.03;;;;;;;-146.64;100.00;41913.25;5047438;28;20024;-76
2022/01/21 09:45:52;;;;;;;26.30;3.70;;;;;;;-146.64;100.00;41606.09;5035549;28;20484;-77
2022/01/21 09:48:24;;;;;;;20.52;3.75;;;;;;;-146.64;100.00;41491.41;5053181;28;20448;-76
2022/01/21 09:50:51;;;;;;;20.42;3.85;;;;;;;-146.64;100.00;41104.41;5053212;28;20099;-75
2022/01/21 09:53:21;;;;;;;23.02;3.58;;;;;;;-146.64;100.00;40975.41;5023342;28;20082;-76
2022/01/21 09:55:47;;;;;;;22.70;3.33;;;;;;;-146.64;100.00;40889.41;5032875;28;20129;-76
2022/01/21 09:58:12;;;;;;;21.40;3.40;;;;;;;-146.64;100.00;40934.47;5049120;28;20107;-76
2022/01/21 10:00:40;;;;;;;21.42;3.50;;;;;;;-146.64;100.00;40905.81;5022278;28;20037;-76
2022/01/21 10:03:05;;;;;;;15.77;3.28;;;;;;;-146.64;100.00;40844.38;5051445;28;20024;-76
2022/01/21 10:05:31;;;;;;;21.65;3.47;;;;;;;-146.64;100.00;40797.28;5026000;28;20029;-75
2022/01/21 10:07:59;;;;;;;25.10;4.75;;;;;;;-146.64;100.00;40780.91;5024962;28;20085;-76
2022/01/21 10:10:24;;;;;;;14.93;3.05;;;;;;;-146.64;100.00;40799.34;5046344;28;20115;-75
2022/01/21 10:12:50;;;;;;;25.67;3.22;;;;;;;-146.64;100.00;40721.53;5056547;28;20552;-75
2022/01/21 10:15:16;;;;;;;10.82;3.05;;;;;;;-146.64;100.00;40770.69;5068871;28;20385;-75
2022/01/21 10:17:58;;;;;;;18.70;2.75;;;;;;;-146.64;100.00;40799.34;5036360;28;20029;-75
2022/01/21 10:20:24;;;;;;;21.40;3.90;;;;;;;-146.64;100.00;40811.63;5024566;28;20041;-75
2022/01/21 10:23:02;;;;;;;18.05;3.75;;;;;;;-146.64;100.00;40725.63;5043192;28;20032;-75
2022/01/21 10:25:27;;;;;;;20.05;2.78;;;;;;;-146.64;100.00;40791.16;5032182;28;20021;-75
2022/01/21 10:28:10;;;;;;;15.82;2.78;;;;;;;-146.64;100.00;40809.56;5050343;28;20028;-75
2022/01/21 10:30:36;;;;;;;22.67;3.25;;;;;;;-146.64;100.00;40770.69;5032642;28;20025;-75
2022/01/21 10:33:16;;;;;;;15.93;3.75;;;;;;;-146.64;100.00;40758.38;5048300;28;20108;-75
2022/01/21 10:35:46;;;;;;;26.52;3.70;;;;;;;-146.64;100.00;40772.72;5063090;28;20028;-75
2022/01/21 10:38:28;;;;;;;23.45;3.80;;;;;;;-146.64;100.00;40713.34;5042235;28;20024;-75
2022/01/21 10:41:02;;;;;;;21.05;3.63;;;;;;;-146.64;100.00;40688.78;5050763;28;20051;-75
2022/01/21 10:43:27;;;;;;;12.20;2.78;;;;;;;-146.64;100.00;40709.25;5035711;28;20083;-75
2022/01/21 10:45:58;;;;;;;22.85;3.20;;;;;;;-146.64;100.00;40725.63;5051061;28;20056;-75
2022/01/21 10:48:30;;;;;;;24.23;3.63;;;;;;;-146.64;100.00;40748.16;5032297;28;20064;-75
2022/01/21 10:51:15;;;;;;;15.27;2.92;;;;;;;-146.64;100.00;40696.97;5037609;28;20090;-75
2022/01/21 10:53:43;;;;;;;19.30;3.33;;;;;;;-146.64;100.00;40639.66;5032496;28;20076;-75
2022/01/21 10:56:11;;;;;;;17.52;2.67;;;;;;;-146.64;100.00;40533.19;5062616;28;20020;-75
2022/01/21 10:58:41;;;;;;;21.58;3.25;;;;;;;-146.64;100.00;40533.19;5051975;28;20483;-75
2022/01/21 11:01:17;;;;;;;13.23;2.40;;;;;;;-146.64;100.00;40549.56;5047620;28;20483;-75
2022/01/21 11:04:03;;;;;;;13.23;2.25;;;;;;;-146.64;100.00;40606.88;5044293;28;20025;-75
2022/01/21 11:06:39;;;;;;;28.83;2.65;;;;;;;-146.64;100.00;40582.31;5026765;28;20025;-75
2022/01/21 11:09:15;;;;;;;12.57;2.88;;;;;;;-146.64;100.00;40643.75;5039682;28;20019;-75
2022/01/21 11:11:42;;;;;;;16.95;1.80;;;;;;;-146.64;100.00;40610.97;5051199;28;20020;-75
2022/01/21 11:14:12;;;;;;;;;;;;;;;-146.64;100.00;40672.41;5029601;28;20099;-75
2022/01/21 11:16:39;;;;;;;14.27;2.78;;;;;;;-146.64;100.00;40688.78;5038633;28;19952;-75
2022/01/21 11:19:08;;;;;;;16.00;2.78;;;;;;;-146.64;100.00;40639.66;5050423;28;20384;-76
2022/01/21 11:21:39;;;;;;;13.52;2.50;;;;;;;-146.64;100.00;40725.63;5035121;28;20483;-76
2022/01/21 11:24:08;;;;;;;14.35;2.03;;;;;;;-146.64;100.00;40809.56;5059297;28;20031;-76
2022/01/21 11:26:34;;;;;;;13.80;3.00;;;;;;;-146.64;100.00;40852.56;5021151;28;20021;-76
2022/01/21 11:29:01;;;;;;;17.95;1.85;;;;;;;-146.64;100.00;40930.38;5049593;28;20031;-76
2022/01/21 11:31:28;;;;;;;14.95;3.15;;;;;;;-146.64;100.00;41016.38;5050674;28;20020;-75
2022/01/21 11:33:53;;;;;;;13.88;2.33;;;;;;;-146.64;100.00;41139.22;5065925;28;20028;-76
2022/01/21 11:36:19;;;;;;;52.50;3.13;;;;;;;-146.64;100.00;41300.97;5052882;28;20020;-76
2022/01/21 11:38:45;;;;;;;17.90;3.22;;;;;;;-146.64;100.00;41450.47;5046257;28;20060;-75
2022/01/21 11:41:16;;;;;;;18.63;2.53;;;;;;;-146.64;100.00;41798.59;5049415;28;20035;-76
2022/01/21 11:43:51;;;;;;;16.80;3.08;;;;;;;-146.64;100.00;41399.25;5058015;28;20484;-75
2022/01/21 11:46:25;;;;;;;21.27;3.80;;;;;;;-146.64;100.00;41128.97;5038863;28;20043;-75
2022/01/21 11:48:56;;;;;;;21.83;2.97;;;;;;;-146.64;100.00;40868.94;5036408;28;20024;-75
2022/01/21 11:51:30;;;;;;;20.15;2.85;;;;;;;-146.64;100.00;40688.78;5060815;28;20036;-75
2022/01/21 11:53:58;;;;;;;12.20;2.33;;;;;;;-146.64;100.00;40428.78;5043803;28;20342;-75